createdAt,value
2018-05-13T00:00:24.178Z,30.40
2018-05-13T00:01:24.189Z,28.90
2018-05-13T00:02:24.218Z,31.70
2018-05-13T00:03:24.241Z,29.90
2018-05-13T00:04:24.247Z,29.90
2018-05-13T00:05:24.266Z,29.90
2018-05-13T00:06:24.283Z,29.30
2018-05-13T00:07:24.299Z,30.20
2018-05-13T00:08:24.319Z,30.30
2018-05-13T00:09:24.345Z,30.40
2018-05-13T00:10:24.354Z,30.20
2018-05-13T00:11:24.423Z,28.60
2018-05-13T00:12:24.399Z,30.30
2018-05-13T00:13:24.416Z,29.90
2018-05-13T00:14:24.429Z,29.20
2018-05-13T00:15:24.447Z,30.40
2018-05-13T00:16:24.466Z,30.80
2018-05-13T00:17:24.481Z,29.90
2018-05-13T00:18:24.498Z,29.30
2018-05-13T00:19:24.525Z,29.40
2018-05-13T00:20:24.534Z,29.70
2018-05-13T00:21:24.550Z,31.10
2018-05-13T00:22:24.568Z,30.00
2018-05-13T00:23:24.587Z,30.40
2018-05-13T00:24:24.609Z,29.60
2018-05-13T00:25:24.626Z,30.30
2018-05-13T00:26:24.641Z,31.00
2018-05-13T00:27:24.657Z,30.60
2018-05-13T00:28:24.679Z,29.80
2018-05-13T00:29:24.706Z,30.20
2018-05-13T00:30:24.722Z,30.00
2018-05-13T00:31:24.730Z,30.20
2018-05-13T00:32:24.755Z,30.30
2018-05-13T00:33:24.767Z,30.70
2018-05-13T00:34:24.785Z,30.40
2018-05-13T00:35:25.110Z,30.70
2018-05-13T00:36:24.830Z,30.90
2018-05-13T00:37:24.849Z,30.70
2018-05-13T00:38:24.854Z,31.30
2018-05-13T00:39:24.871Z,31.20
2018-05-13T00:40:24.898Z,31.40
2018-05-13T00:41:24.909Z,30.40
2018-05-13T00:42:24.928Z,31.10
2018-05-13T00:43:24.946Z,31.10
2018-05-13T00:44:24.971Z,31.10
2018-05-13T00:45:24.984Z,30.70
2018-05-13T00:46:24.998Z,31.20
2018-05-13T00:47:25.194Z,30.80
2018-05-13T00:48:25.041Z,30.90
2018-05-13T00:49:25.266Z,30.30
2018-05-13T00:50:25.276Z,30.50
2018-05-13T00:52:25.107Z,31.30
2018-05-13T00:53:25.125Z,31.80
2018-05-13T00:54:25.144Z,31.50
2018-05-13T00:55:25.160Z,31.20
2018-05-13T00:56:25.179Z,30.90
2018-05-13T00:57:25.197Z,32.30
2018-05-13T00:58:25.212Z,30.30
2018-05-13T00:59:25.239Z,30.50
2018-05-13T01:00:25.253Z,31.80
2018-05-13T01:01:25.271Z,31.60
2018-05-13T01:02:25.286Z,31.30
2018-05-13T01:03:25.299Z,30.90
2018-05-13T01:04:25.322Z,31.90
2018-05-13T01:05:25.334Z,32.30
2018-05-13T01:06:25.511Z,31.80
2018-05-13T01:07:25.409Z,30.90
2018-05-13T01:08:25.394Z,32.00
2018-05-13T01:09:25.413Z,31.50
2018-05-13T01:10:25.421Z,30.60
2018-05-13T01:11:25.441Z,31.10
2018-05-13T01:12:25.463Z,31.30
2018-05-13T01:13:25.479Z,32.20
2018-05-13T01:14:25.502Z,31.50
2018-05-13T01:15:25.513Z,31.10
2018-05-13T01:16:25.531Z,31.80
2018-05-13T01:17:25.551Z,32.10
2018-05-13T01:18:25.616Z,31.40
2018-05-13T01:19:25.587Z,32.60
2018-05-13T01:20:25.604Z,32.40
2018-05-13T01:21:25.625Z,31.60
2018-05-13T01:22:25.643Z,30.60
2018-05-13T01:23:25.656Z,30.20
2018-05-13T01:24:25.675Z,33.00
2018-05-13T01:25:25.740Z,31.70
2018-05-13T01:26:25.711Z,31.80
2018-05-13T01:27:25.729Z,32.30
2018-05-13T01:28:25.746Z,31.80
2018-05-13T01:29:25.763Z,32.80
2018-05-13T01:30:25.780Z,32.10
2018-05-13T01:31:25.803Z,31.50
2018-05-13T01:32:25.893Z,31.50
2018-05-13T01:33:25.846Z,31.70
2018-05-13T01:34:25.855Z,33.40
2018-05-13T01:35:25.923Z,30.80
2018-05-13T01:36:25.888Z,32.10
2018-05-13T01:37:25.906Z,30.90
2018-05-13T01:38:25.923Z,32.10
2018-05-13T01:39:25.959Z,31.90
2018-05-13T01:40:26.004Z,32.60
2018-05-13T01:41:25.976Z,32.30
2018-05-13T01:42:25.993Z,33.60
2018-05-13T01:43:26.009Z,32.20
2018-05-13T01:44:26.025Z,32.20
2018-05-13T01:45:26.040Z,31.30
2018-05-13T01:46:26.060Z,32.00
2018-05-13T01:47:26.075Z,31.40
2018-05-13T01:48:26.093Z,32.60
2018-05-13T01:49:26.111Z,31.60
2018-05-13T01:50:26.128Z,30.70
2018-05-13T01:51:26.246Z,31.80
2018-05-13T01:52:26.170Z,31.50
2018-05-13T01:53:26.182Z,32.30
2018-05-13T01:54:26.200Z,31.70
2018-05-13T01:55:26.223Z,31.90
2018-05-13T01:56:26.235Z,32.80
2018-05-13T01:57:26.258Z,32.50
2018-05-13T01:58:26.270Z,32.10
2018-05-13T01:59:26.289Z,32.10
2018-05-13T02:00:26.305Z,31.90
2018-05-13T02:01:26.324Z,31.20
2018-05-13T02:02:26.342Z,31.50
2018-05-13T02:03:26.362Z,32.10
2018-05-13T02:04:26.376Z,30.90
2018-05-13T02:05:26.394Z,32.60
2018-05-13T02:06:26.411Z,32.10
2018-05-13T02:07:26.433Z,32.20
2018-05-13T02:08:26.448Z,31.30
2018-05-13T02:09:26.463Z,32.70
2018-05-13T02:10:26.482Z,32.00
2018-05-13T02:11:26.559Z,32.20
2018-05-13T02:12:26.529Z,33.00
2018-05-13T02:13:26.534Z,33.00
2018-05-13T02:14:26.635Z,33.00
2018-05-13T02:15:26.569Z,32.10
2018-05-13T02:16:26.585Z,32.20
2018-05-13T02:17:26.607Z,32.40
2018-05-13T02:18:26.623Z,31.90
2018-05-13T02:19:26.642Z,32.40
2018-05-13T02:20:26.661Z,32.70
2018-05-13T02:21:26.675Z,31.40
2018-05-13T02:22:26.693Z,32.80
2018-05-13T02:23:26.710Z,33.60
2018-05-13T02:24:26.747Z,32.40
2018-05-13T02:25:26.751Z,32.30
2018-05-13T02:26:26.763Z,32.30
2018-05-13T02:27:26.784Z,31.60
2018-05-13T02:28:26.799Z,31.90
2018-05-13T02:29:26.814Z,32.70
2018-05-13T02:30:26.836Z,32.10
2018-05-13T02:31:26.851Z,32.90
2018-05-13T02:32:26.872Z,31.70
2018-05-13T02:33:26.890Z,32.40
2018-05-13T02:34:26.909Z,33.30
2018-05-13T02:35:26.925Z,32.70
2018-05-13T02:36:26.946Z,31.80
2018-05-13T02:37:26.963Z,33.10
2018-05-13T02:38:26.975Z,31.60
2018-05-13T02:39:26.991Z,31.90
2018-05-13T02:40:27.013Z,32.70
2018-05-13T02:41:27.029Z,32.10
2018-05-13T02:42:27.046Z,31.20
2018-05-13T02:43:27.090Z,31.90
2018-05-13T02:44:27.081Z,31.20
2018-05-13T02:45:27.097Z,31.70
2018-05-13T02:46:27.149Z,32.50
2018-05-13T02:47:27.132Z,30.90
2018-05-13T02:48:27.157Z,32.80
2018-05-13T02:49:27.168Z,31.20
2018-05-13T02:50:27.186Z,31.00
2018-05-13T02:51:27.203Z,32.60
2018-05-13T02:52:27.221Z,32.00
2018-05-13T02:53:27.239Z,31.80
2018-05-13T02:54:27.260Z,32.00
2018-05-13T02:55:27.276Z,32.40
2018-05-13T02:56:27.397Z,32.60
2018-05-13T02:57:27.326Z,32.80
2018-05-13T02:58:27.337Z,32.60
2018-05-13T02:59:27.341Z,32.70
2018-05-13T03:00:27.360Z,32.20
2018-05-13T03:01:27.410Z,32.50
2018-05-13T03:02:27.395Z,31.80
2018-05-13T03:03:27.415Z,32.00
2018-05-13T03:04:27.429Z,31.40
2018-05-13T03:05:27.446Z,31.20
2018-05-13T03:06:27.466Z,32.10
2018-05-13T03:07:27.484Z,31.50
2018-05-13T03:08:27.510Z,31.00
2018-05-13T03:09:27.520Z,30.80
2018-05-13T03:10:27.547Z,32.40
2018-05-13T03:11:27.555Z,34.90
2018-05-13T03:12:27.571Z,34.10
2018-05-13T03:13:27.589Z,33.50
2018-05-13T03:14:27.612Z,33.10
2018-05-13T03:15:27.676Z,31.50
2018-05-13T03:16:27.961Z,34.10
2018-05-13T03:17:27.663Z,32.60
2018-05-13T03:18:27.680Z,34.90
2018-05-13T03:19:27.692Z,34.50
2018-05-13T03:20:27.716Z,34.50
2018-05-13T03:21:27.745Z,34.40
2018-05-13T03:22:27.748Z,34.80
2018-05-13T03:23:27.767Z,33.90
2018-05-13T03:24:27.781Z,32.80
2018-05-13T03:25:27.808Z,34.70
2018-05-13T03:26:27.824Z,32.50
2018-05-13T03:27:27.844Z,33.30
2018-05-13T03:28:27.858Z,32.80
2018-05-13T03:29:27.879Z,33.70
2018-05-13T03:30:27.890Z,33.30
2018-05-13T03:31:27.916Z,32.40
2018-05-13T03:32:27.927Z,32.70
2018-05-13T03:33:27.940Z,32.70
2018-05-13T03:34:27.955Z,35.10
2018-05-13T03:35:27.973Z,34.30
2018-05-13T03:36:27.993Z,33.80
2018-05-13T03:37:28.014Z,33.80
2018-05-13T03:38:28.034Z,33.20
2018-05-13T03:39:28.048Z,31.90
2018-05-13T03:40:28.066Z,32.10
2018-05-13T03:41:28.085Z,32.60
2018-05-13T03:42:28.104Z,32.00
2018-05-13T03:43:28.115Z,32.80
2018-05-13T03:44:28.134Z,31.90
2018-05-13T03:45:28.197Z,33.10
2018-05-13T03:46:28.167Z,31.80
2018-05-13T03:47:28.183Z,33.20
2018-05-13T03:48:28.204Z,32.40
2018-05-13T03:49:28.218Z,33.00
2018-05-13T03:50:28.246Z,33.10
2018-05-13T03:51:28.303Z,33.10
2018-05-13T03:52:28.303Z,32.80
2018-05-13T03:53:28.293Z,33.60
2018-05-13T03:54:28.462Z,33.20
2018-05-13T03:55:28.667Z,32.50
2018-05-13T03:56:28.364Z,33.00
2018-05-13T03:57:28.359Z,31.30
2018-05-13T03:58:28.376Z,31.90
2018-05-13T03:59:28.396Z,32.90
2018-05-13T04:00:28.412Z,31.30
2018-05-13T04:01:28.436Z,30.90
2018-05-13T04:02:28.458Z,32.50
2018-05-13T04:03:28.464Z,34.00
2018-05-13T04:04:28.481Z,32.70
2018-05-13T04:05:28.508Z,31.90
2018-05-13T04:06:28.517Z,31.90
2018-05-13T04:07:28.580Z,33.00
2018-05-13T04:08:28.555Z,32.30
2018-05-13T04:09:28.569Z,31.80
2018-05-13T04:10:28.593Z,31.80
2018-05-13T04:11:28.607Z,34.10
2018-05-13T04:12:28.624Z,32.30
2018-05-13T04:13:28.640Z,33.70
2018-05-13T04:14:28.673Z,33.70
2018-05-13T04:15:28.675Z,34.90
2018-05-13T04:16:28.692Z,34.20
2018-05-13T04:17:28.710Z,34.30
2018-05-13T04:18:28.760Z,34.80
2018-05-13T04:19:28.746Z,36.10
2018-05-13T04:20:28.767Z,36.60
2018-05-13T04:21:28.784Z,35.70
2018-05-13T04:22:28.804Z,35.70
2018-05-13T04:23:28.821Z,35.40
2018-05-13T04:24:28.841Z,35.60
2018-05-13T04:25:28.851Z,37.60
2018-05-13T04:26:28.868Z,36.70
2018-05-13T04:27:28.888Z,35.90
2018-05-13T04:28:28.904Z,36.20
2018-05-13T04:29:28.923Z,36.90
2018-05-13T04:30:28.944Z,36.70
2018-05-13T04:31:28.957Z,36.40
2018-05-13T04:32:28.975Z,36.20
2018-05-13T04:33:28.988Z,34.40
2018-05-13T04:34:29.010Z,36.10
2018-05-13T04:35:29.029Z,36.20
2018-05-13T04:36:29.047Z,36.80
2018-05-13T04:37:29.059Z,36.70
2018-05-13T04:38:29.075Z,35.50
2018-05-13T04:39:29.095Z,34.10
2018-05-13T04:40:29.111Z,33.40
2018-05-13T04:41:29.131Z,34.60
2018-05-13T04:42:29.149Z,34.60
2018-05-13T04:43:29.166Z,32.60
2018-05-13T04:44:29.184Z,35.00
2018-05-13T04:45:29.203Z,36.10
2018-05-13T04:46:29.224Z,36.10
2018-05-13T04:47:29.243Z,38.80
2018-05-13T04:48:29.255Z,38.50
2018-05-13T04:49:29.269Z,37.40
2018-05-13T04:50:29.289Z,37.30
2018-05-13T04:51:29.307Z,38.30
2018-05-13T04:52:29.320Z,39.00
2018-05-13T04:53:29.338Z,36.80
2018-05-13T04:54:29.355Z,38.40
2018-05-13T04:55:29.374Z,37.40
2018-05-13T04:56:29.421Z,39.70
2018-05-13T04:57:29.411Z,38.80
2018-05-13T04:58:29.429Z,41.20
2018-05-13T04:59:29.442Z,36.80
2018-05-13T05:00:29.470Z,37.20
2018-05-13T05:01:29.479Z,32.50
2018-05-13T05:02:29.509Z,31.20
2018-05-13T05:03:29.513Z,34.20
2018-05-13T05:04:29.550Z,32.10
2018-05-13T05:05:29.549Z,32.50
2018-05-13T05:06:29.564Z,34.00
2018-05-13T05:07:29.651Z,33.00
2018-05-13T05:08:29.600Z,33.00
2018-05-13T05:09:29.617Z,33.20
2018-05-13T05:10:29.646Z,33.40
2018-05-13T05:11:29.654Z,34.00
2018-05-13T05:12:29.670Z,35.30
2018-05-13T05:13:29.691Z,33.70
2018-05-13T05:14:29.705Z,36.70
2018-05-13T05:15:29.727Z,32.30
2018-05-13T05:16:29.741Z,31.40
2018-05-13T05:17:29.770Z,33.10
2018-05-13T05:18:29.777Z,33.00
2018-05-13T05:19:29.798Z,36.30
2018-05-13T05:20:29.819Z,33.60
2018-05-13T05:21:29.830Z,32.80
2018-05-13T05:22:29.847Z,35.20
2018-05-13T05:23:29.900Z,35.80
2018-05-13T05:24:29.888Z,35.60
2018-05-13T05:25:29.895Z,36.00
2018-05-13T05:26:29.915Z,37.20
2018-05-13T05:27:29.932Z,37.00
2018-05-13T05:28:29.950Z,35.90
2018-05-13T05:29:29.966Z,37.50
2018-05-13T05:30:29.990Z,35.60
2018-05-13T05:31:30.005Z,35.70
2018-05-13T05:32:30.037Z,36.10
2018-05-13T05:33:30.036Z,36.10
2018-05-13T05:34:30.057Z,33.60
2018-05-13T05:35:30.072Z,34.00
2018-05-13T05:36:30.090Z,35.90
2018-05-13T05:37:30.112Z,35.90
2018-05-13T05:38:30.133Z,37.90
2018-05-13T05:39:30.140Z,35.30
2018-05-13T05:40:30.160Z,36.50
2018-05-13T05:41:30.177Z,35.70
2018-05-13T05:42:30.203Z,33.90
2018-05-13T05:43:30.212Z,35.10
2018-05-13T05:44:30.245Z,35.20
2018-05-13T05:45:30.248Z,34.50
2018-05-13T05:46:30.266Z,35.40
2018-05-13T05:47:30.284Z,35.00
2018-05-13T05:48:30.306Z,34.60
2018-05-13T05:49:30.332Z,36.10
2018-05-13T05:50:30.345Z,34.20
2018-05-13T05:51:30.358Z,35.60
2018-05-13T05:52:30.448Z,33.80
2018-05-13T05:53:30.394Z,34.10
2018-05-13T05:54:30.412Z,34.10
2018-05-13T05:55:30.432Z,34.40
2018-05-13T05:56:30.447Z,35.20
2018-05-13T05:57:30.469Z,35.10
2018-05-13T05:58:30.482Z,37.00
2018-05-13T05:59:30.507Z,35.40
2018-05-13T06:00:30.522Z,34.10
2018-05-13T06:01:30.541Z,32.80
2018-05-13T06:02:30.559Z,33.40
2018-05-13T06:03:30.577Z,33.60
2018-05-13T06:04:30.606Z,32.60
2018-05-13T06:05:30.615Z,34.10
2018-05-13T06:06:30.627Z,34.50
2018-05-13T06:07:30.645Z,34.70
2018-05-13T06:08:30.661Z,34.50
2018-05-13T06:09:30.683Z,35.20
2018-05-13T06:10:30.700Z,34.90
2018-05-13T06:11:30.744Z,34.30
2018-05-13T06:12:30.734Z,32.40
2018-05-13T06:13:30.757Z,32.60
2018-05-13T06:14:30.775Z,32.90
2018-05-13T06:15:30.796Z,32.70
2018-05-13T06:16:30.810Z,32.30
2018-05-13T06:17:30.829Z,34.30
2018-05-13T06:18:30.850Z,32.40
2018-05-13T06:19:30.956Z,31.50
2018-05-13T06:20:30.881Z,31.90
2018-05-13T06:21:30.911Z,31.70
2018-05-13T06:22:30.921Z,30.40
2018-05-13T06:23:30.940Z,30.70
2018-05-13T06:24:30.957Z,30.90
2018-05-13T06:25:30.974Z,30.50
2018-05-13T06:26:30.993Z,30.40
2018-05-13T06:27:31.008Z,31.00
2018-05-13T06:28:31.029Z,30.00
2018-05-13T06:29:31.042Z,30.10
2018-05-13T06:30:31.063Z,30.40
2018-05-13T06:31:31.184Z,31.60
2018-05-13T06:32:31.113Z,32.90
2018-05-13T06:33:31.115Z,37.80
2018-05-13T06:34:31.142Z,29.60
2018-05-13T06:35:31.165Z,29.50
2018-05-13T06:36:31.223Z,29.00
2018-05-13T06:37:31.225Z,28.90
2018-05-13T06:38:31.251Z,29.10
2018-05-13T06:39:31.307Z,28.50
2018-05-13T06:40:31.254Z,28.20
2018-05-13T06:41:31.261Z,28.80
2018-05-13T06:42:31.287Z,28.30
2018-05-13T06:43:31.299Z,30.00
2018-05-13T06:44:31.323Z,27.60
2018-05-13T06:45:31.337Z,28.90
2018-05-13T06:46:31.355Z,27.90
2018-05-13T06:47:31.374Z,27.60
2018-05-13T06:48:31.396Z,29.40
2018-05-13T06:49:31.410Z,28.60
2018-05-13T06:50:31.441Z,28.60
2018-05-13T06:51:31.477Z,28.90
2018-05-13T06:52:31.463Z,29.40
2018-05-13T06:54:31.499Z,28.80
2018-05-13T06:55:31.516Z,29.60
2018-05-13T06:56:31.534Z,30.20
2018-05-13T06:57:31.553Z,29.50
2018-05-13T06:58:31.575Z,28.50
2018-05-13T06:59:31.590Z,30.50
2018-05-13T07:00:31.610Z,30.20
2018-05-13T07:01:31.625Z,29.00
2018-05-13T07:02:31.644Z,28.80
2018-05-13T07:03:32.044Z,28.60
2018-05-13T07:04:32.002Z,30.10
2018-05-13T07:05:32.026Z,29.50
2018-05-13T07:06:31.718Z,29.10
2018-05-13T07:07:31.749Z,30.40
2018-05-13T07:08:31.748Z,29.20
2018-05-13T07:09:31.764Z,29.40
2018-05-13T07:10:31.783Z,28.00
2018-05-13T07:11:31.803Z,27.80
2018-05-13T07:12:31.838Z,28.20
2018-05-13T07:13:31.841Z,27.50
2018-05-13T07:14:31.862Z,26.20
2018-05-13T07:15:31.873Z,28.00
2018-05-13T07:16:31.986Z,27.60
2018-05-13T07:17:31.914Z,28.30
2018-05-13T07:18:31.929Z,28.30
2018-05-13T07:19:31.948Z,28.00
2018-05-13T07:20:31.970Z,29.00
2018-05-13T07:21:31.984Z,27.20
2018-05-13T07:22:32.005Z,27.40
2018-05-13T07:23:32.022Z,27.90
2018-05-13T07:24:32.039Z,27.50
2018-05-13T07:25:32.060Z,26.80
2018-05-13T07:26:32.077Z,26.70
2018-05-13T07:27:32.095Z,28.00
2018-05-13T07:28:32.117Z,27.90
2018-05-13T07:29:32.130Z,28.40
2018-05-13T07:30:32.148Z,26.80
2018-05-13T07:31:32.175Z,26.50
2018-05-13T07:32:32.186Z,26.00
2018-05-13T07:33:32.203Z,27.10
2018-05-13T07:34:32.224Z,27.00
2018-05-13T07:35:32.242Z,26.50
2018-05-13T07:36:32.262Z,26.60
2018-05-13T07:37:32.277Z,27.30
2018-05-13T07:38:32.297Z,26.60
2018-05-13T07:39:32.314Z,27.60
2018-05-13T07:40:32.334Z,27.20
2018-05-13T07:41:32.354Z,28.10
2018-05-13T07:42:32.370Z,26.30
2018-05-13T07:43:32.430Z,27.30
2018-05-13T07:44:32.413Z,28.30
2018-05-13T07:45:32.484Z,27.70
2018-05-13T07:46:32.441Z,28.60
2018-05-13T07:47:32.466Z,27.70
2018-05-13T07:48:32.481Z,26.10
2018-05-13T07:49:32.500Z,27.30
2018-05-13T07:50:32.518Z,28.70
2018-05-13T07:51:32.533Z,28.40
2018-05-13T07:52:32.554Z,27.40
2018-05-13T07:53:32.576Z,29.20
2018-05-13T07:54:32.589Z,28.80
2018-05-13T07:55:32.616Z,29.60
2018-05-13T07:56:32.626Z,27.90
2018-05-13T07:57:32.644Z,28.20
2018-05-13T07:58:32.667Z,27.60
2018-05-13T07:59:32.686Z,27.90
2018-05-13T08:00:32.771Z,29.10
2018-05-13T08:01:32.717Z,27.80
2018-05-13T08:02:32.741Z,28.20
2018-05-13T08:03:32.755Z,27.30
2018-05-13T08:04:32.777Z,27.50
2018-05-13T08:05:32.793Z,27.50
2018-05-13T08:06:32.814Z,28.10
2018-05-13T08:07:32.833Z,28.00
2018-05-13T08:08:32.853Z,28.30
2018-05-13T08:09:32.869Z,27.60
2018-05-13T08:10:32.885Z,27.30
2018-05-13T08:11:32.906Z,28.40
2018-05-13T08:12:32.925Z,27.80
2018-05-13T08:13:32.949Z,27.80
2018-05-13T08:14:32.972Z,26.90
2018-05-13T08:15:32.981Z,27.50
2018-05-13T08:16:33.004Z,28.30
2018-05-13T08:17:33.018Z,28.00
2018-05-13T08:18:33.037Z,29.30
2018-05-13T08:19:33.053Z,28.80
2018-05-13T08:20:33.141Z,28.70
2018-05-13T08:21:33.100Z,28.60
2018-05-13T08:22:33.112Z,27.80
2018-05-13T08:23:33.130Z,29.70
2018-05-13T08:24:33.157Z,28.90
2018-05-13T08:25:33.165Z,28.50
2018-05-13T08:26:33.188Z,28.60
2018-05-13T08:27:33.208Z,29.80
2018-05-13T08:28:33.224Z,29.30
2018-05-13T08:29:33.255Z,29.20
2018-05-13T08:30:33.261Z,29.60
2018-05-13T08:31:33.290Z,29.90
2018-05-13T08:32:33.312Z,28.80
2018-05-13T08:33:33.318Z,28.40
2018-05-13T08:34:33.342Z,29.50
2018-05-13T08:35:33.365Z,28.90
2018-05-13T08:36:33.384Z,28.90
2018-05-13T08:37:33.394Z,30.30
2018-05-13T08:38:33.410Z,29.40
2018-05-13T08:39:33.436Z,28.50
2018-05-13T08:40:33.452Z,28.80
2018-05-13T08:41:33.469Z,29.20
2018-05-13T08:42:33.491Z,29.30
2018-05-13T08:43:33.511Z,30.00
2018-05-13T08:44:33.530Z,29.50
2018-05-13T08:45:33.545Z,29.00
2018-05-13T08:46:33.564Z,29.50
2018-05-13T08:47:33.587Z,30.10
2018-05-13T08:48:33.621Z,31.10
2018-05-13T08:49:33.630Z,31.60
2018-05-13T08:50:33.641Z,31.10
2018-05-13T08:51:33.661Z,31.70
2018-05-13T08:52:33.691Z,32.10
2018-05-13T08:53:33.699Z,31.60
2018-05-13T08:54:33.714Z,31.60
2018-05-13T08:55:33.739Z,32.80
2018-05-13T08:56:33.755Z,31.80
2018-05-13T08:57:33.779Z,31.70
2018-05-13T08:58:33.793Z,31.00
2018-05-13T08:59:33.825Z,30.40
2018-05-13T09:00:33.833Z,31.10
2018-05-13T09:01:33.851Z,31.40
2018-05-13T09:02:33.872Z,31.30
2018-05-13T09:03:33.893Z,30.70
2018-05-13T09:04:33.912Z,30.70
2018-05-13T09:05:33.930Z,32.40
2018-05-13T09:06:33.951Z,30.70
2018-05-13T09:07:33.964Z,31.20
2018-05-13T09:08:34.147Z,31.30
2018-05-13T09:09:34.008Z,30.70
2018-05-13T09:10:34.022Z,32.00
2018-05-13T09:11:34.041Z,31.90
2018-05-13T09:12:34.064Z,31.30
2018-05-13T09:13:34.078Z,31.00
2018-05-13T09:14:34.108Z,30.90
2018-05-13T09:15:34.116Z,32.30
2018-05-13T09:16:34.140Z,30.70
2018-05-13T09:17:34.171Z,31.20
2018-05-13T09:18:34.180Z,31.90
2018-05-13T09:19:34.194Z,32.40
2018-05-13T09:20:34.276Z,32.80
2018-05-13T09:21:34.232Z,31.60
2018-05-13T09:22:34.253Z,31.00
2018-05-13T09:23:34.268Z,31.60
2018-05-13T09:24:34.285Z,31.10
2018-05-13T09:25:34.308Z,31.30
2018-05-13T09:26:34.413Z,31.40
2018-05-13T09:27:34.345Z,30.90
2018-05-13T09:28:34.371Z,28.10
2018-05-13T09:29:34.383Z,28.80
2018-05-13T09:30:34.421Z,29.10
2018-05-13T09:31:34.418Z,29.40
2018-05-13T09:32:34.448Z,28.50
2018-05-13T09:33:34.489Z,30.30
2018-05-13T09:34:34.480Z,31.00
2018-05-13T09:35:34.505Z,30.70
2018-05-13T09:36:34.618Z,29.50
2018-05-13T09:37:34.623Z,29.20
2018-05-13T09:38:34.562Z,28.20
2018-05-13T09:39:34.641Z,28.90
2018-05-13T09:40:34.596Z,28.10
2018-05-13T09:41:34.615Z,28.20
2018-05-13T09:42:34.632Z,29.00
2018-05-13T09:43:34.651Z,29.60
2018-05-13T09:44:34.679Z,29.40
2018-05-13T09:45:34.694Z,30.80
2018-05-13T09:46:34.793Z,31.40
2018-05-13T09:47:34.734Z,30.80
2018-05-13T09:48:34.749Z,30.70
2018-05-13T09:49:34.771Z,30.70
2018-05-13T09:50:34.808Z,29.30
2018-05-13T09:51:34.812Z,29.40
2018-05-13T09:52:34.835Z,29.10
2018-05-13T09:53:34.844Z,27.90
2018-05-13T09:54:34.865Z,28.70
2018-05-13T09:55:34.885Z,28.40
2018-05-13T09:56:34.907Z,28.30
2018-05-13T09:57:34.926Z,29.80
2018-05-13T09:58:34.943Z,29.50
2018-05-13T09:59:34.964Z,30.10
2018-05-13T10:00:34.986Z,30.40
2018-05-13T10:01:35.003Z,30.90
2018-05-13T10:02:35.026Z,29.60
2018-05-13T10:03:35.058Z,29.90
2018-05-13T10:04:35.067Z,29.40
2018-05-13T10:05:35.081Z,31.40
2018-05-13T10:06:35.103Z,30.00
2018-05-13T10:07:35.121Z,31.50
2018-05-13T10:08:35.141Z,30.30
2018-05-13T10:09:35.255Z,29.20
2018-05-13T10:10:35.254Z,30.50
2018-05-13T10:11:35.207Z,28.30
2018-05-13T10:12:35.224Z,29.20
2018-05-13T10:13:35.241Z,29.00
2018-05-13T10:14:35.317Z,28.80
2018-05-13T10:15:35.283Z,29.80
2018-05-13T10:16:35.309Z,30.00
2018-05-13T10:17:35.341Z,29.50
2018-05-13T10:18:35.344Z,28.00
2018-05-13T10:19:35.414Z,27.30
2018-05-13T10:20:35.418Z,27.60
2018-05-13T10:21:35.403Z,28.00
2018-05-13T10:22:35.427Z,28.70
2018-05-13T10:23:35.451Z,28.00
2018-05-13T10:24:35.470Z,26.10
2018-05-13T10:25:35.484Z,26.50
2018-05-13T10:26:35.505Z,27.50
2018-05-13T10:27:35.527Z,27.20
2018-05-13T10:28:35.548Z,27.70
2018-05-13T10:29:35.567Z,27.80
2018-05-13T10:30:35.591Z,27.10
2018-05-13T10:31:35.607Z,26.50
2018-05-13T10:32:35.627Z,26.30
2018-05-13T10:33:35.648Z,26.40
2018-05-13T10:34:35.720Z,24.90
2018-05-13T10:35:35.699Z,25.10
2018-05-13T10:36:35.711Z,24.10
2018-05-13T10:37:35.729Z,24.60
2018-05-13T10:38:35.754Z,24.00
2018-05-13T10:39:35.773Z,26.50
2018-05-13T10:40:35.799Z,26.10
2018-05-13T10:41:35.817Z,25.80
2018-05-13T10:42:35.837Z,24.90
2018-05-13T10:43:35.860Z,24.70
2018-05-13T10:44:35.883Z,23.90
2018-05-13T10:45:35.903Z,24.40
2018-05-13T10:46:35.917Z,22.60
2018-05-13T10:47:35.940Z,23.20
2018-05-13T10:48:36.013Z,24.70
2018-05-13T10:49:35.983Z,26.80
2018-05-13T10:50:36.001Z,25.60
2018-05-13T10:51:36.030Z,27.00
2018-05-13T10:52:36.048Z,27.00
2018-05-13T10:53:36.067Z,25.80
2018-05-13T10:54:36.084Z,27.30
2018-05-13T10:55:36.105Z,26.40
2018-05-13T10:56:36.124Z,26.30
2018-05-13T10:57:36.152Z,30.20
2018-05-13T10:58:36.179Z,30.40
2018-05-13T10:59:36.191Z,29.60
2018-05-13T11:00:36.208Z,29.40
2018-05-13T11:01:36.229Z,29.60
2018-05-13T11:02:36.266Z,29.30
2018-05-13T11:03:36.272Z,27.80
2018-05-13T11:04:36.301Z,27.80
2018-05-13T11:05:36.312Z,27.00
2018-05-13T11:06:36.335Z,28.10
2018-05-13T11:07:36.357Z,29.30
2018-05-13T11:08:36.425Z,29.00
2018-05-13T11:09:36.399Z,27.30
2018-05-13T11:10:36.420Z,29.80
2018-05-13T11:11:36.458Z,28.20
2018-05-13T11:12:36.462Z,25.80
2018-05-13T11:13:36.481Z,27.10
2018-05-13T11:14:36.512Z,26.80
2018-05-13T11:15:36.526Z,26.20
2018-05-13T11:16:36.549Z,25.70
2018-05-13T11:17:36.570Z,27.00
2018-05-13T11:18:36.599Z,26.70
2018-05-13T11:19:36.620Z,27.50
2018-05-13T11:20:36.675Z,28.10
2018-05-13T11:21:36.660Z,27.30
2018-05-13T11:22:36.687Z,27.60
2018-05-13T11:23:36.699Z,28.30
2018-05-13T11:24:36.720Z,27.70
2018-05-13T11:25:36.748Z,26.40
2018-05-13T11:26:36.764Z,25.60
2018-05-13T11:27:36.886Z,26.60
2018-05-13T11:28:36.808Z,25.00
2018-05-13T11:29:36.828Z,24.50
2018-05-13T11:30:36.855Z,27.00
2018-05-13T11:31:36.877Z,26.00
2018-05-13T11:32:36.896Z,26.00
2018-05-13T11:33:36.925Z,26.90
2018-05-13T11:34:36.940Z,27.10
2018-05-13T11:35:36.961Z,26.40
2018-05-13T11:36:36.983Z,25.80
2018-05-13T11:37:37.005Z,26.10
2018-05-13T11:38:37.023Z,26.60
2018-05-13T11:39:37.050Z,26.30
2018-05-13T11:40:37.079Z,27.00
2018-05-13T11:41:37.094Z,26.00
2018-05-13T11:42:37.121Z,25.80
2018-05-13T11:43:37.136Z,27.10
2018-05-13T11:44:37.162Z,27.00
2018-05-13T11:45:37.188Z,26.30
2018-05-13T11:46:37.270Z,26.80
2018-05-13T11:47:37.223Z,25.90
2018-05-13T11:48:37.244Z,25.60
2018-05-13T11:49:37.269Z,24.70
2018-05-13T11:50:37.292Z,23.70
2018-05-13T11:51:37.312Z,24.60
2018-05-13T11:52:37.333Z,24.50
2018-05-13T11:53:37.376Z,24.10
2018-05-13T11:54:37.382Z,24.80
2018-05-13T11:55:37.402Z,25.40
2018-05-13T11:56:37.421Z,25.10
2018-05-13T11:57:37.442Z,24.30
2018-05-13T11:58:37.468Z,23.30
2018-05-13T11:59:37.490Z,22.90
2018-05-13T12:00:37.512Z,23.90
2018-05-13T12:01:37.534Z,23.70
2018-05-13T12:02:37.555Z,23.10
2018-05-13T12:03:37.579Z,21.80
2018-05-13T12:04:37.606Z,22.10
2018-05-13T12:05:37.624Z,22.00
2018-05-13T12:06:37.649Z,22.10
2018-05-13T12:07:37.673Z,21.80
2018-05-13T12:08:37.697Z,22.20
2018-05-13T12:09:37.731Z,21.40
2018-05-13T12:10:37.748Z,24.00
2018-05-13T12:11:37.769Z,22.80
2018-05-13T12:12:37.786Z,20.90
2018-05-13T12:13:37.816Z,25.00
2018-05-13T12:14:37.848Z,24.40
2018-05-13T12:15:37.887Z,24.70
2018-05-13T12:16:37.873Z,24.60
2018-05-13T12:17:37.902Z,24.10
2018-05-13T12:18:37.916Z,23.00
2018-05-13T12:19:37.943Z,24.40
2018-05-13T12:20:37.968Z,24.20
2018-05-13T12:21:37.987Z,23.60
2018-05-13T12:22:38.011Z,23.70
2018-05-13T12:23:38.032Z,23.60
2018-05-13T12:24:38.056Z,23.80
2018-05-13T12:25:38.079Z,24.00
2018-05-13T12:26:38.102Z,25.10
2018-05-13T12:27:38.142Z,23.10
2018-05-13T12:28:38.149Z,23.70
2018-05-13T12:29:38.172Z,23.90
2018-05-13T12:30:38.187Z,28.60
2018-05-13T12:31:38.210Z,33.60
2018-05-13T12:32:38.235Z,37.00
2018-05-13T12:33:38.256Z,37.00
2018-05-13T12:34:38.292Z,39.90
2018-05-13T12:35:38.300Z,40.00
2018-05-13T12:36:38.316Z,42.10
2018-05-13T12:37:38.332Z,41.10
2018-05-13T12:38:38.355Z,39.70
2018-05-13T12:39:38.378Z,40.90
2018-05-13T12:40:38.402Z,40.80
2018-05-13T12:41:38.423Z,40.20
2018-05-13T12:42:38.441Z,40.00
2018-05-13T12:43:38.460Z,39.50
2018-05-13T12:44:38.484Z,40.60
2018-05-13T12:45:38.502Z,40.90
2018-05-13T12:46:38.526Z,38.50
2018-05-13T12:47:38.552Z,38.70
2018-05-13T12:48:38.570Z,40.20
2018-05-13T12:49:38.599Z,39.00
2018-05-13T12:50:38.643Z,39.90
2018-05-13T12:51:38.638Z,39.00
2018-05-13T12:52:38.656Z,38.00
2018-05-13T12:53:38.680Z,40.00
2018-05-13T12:54:38.705Z,39.60